sensor_id;sensor_type;location;lat;lon;timestamp;P1;durP1;ratioP1;P2;durP2;ratioP2
13834;SDS011;6988;52.614;13.500;2022-07-03T00:03:34;5.20;;;3.17;;
13834;SDS011;6988;52.614;13.500;2022-07-03T00:08:26;3.70;;;2.87;;
13834;SDS011;6988;52.614;13.500;2022-07-03T00:13:17;4.57;;;2.90;;
13834;SDS011;6988;52.614;13.500;2022-07-03T00:18:10;3.07;;;2.77;;
13834;SDS011;6988;52.614;13.500;2022-07-03T00:23:02;4.10;;;3.00;;
13834;SDS011;6988;52.614;13.500;2022-07-03T00:28:00;4.27;;;3.10;;
13834;SDS011;6988;52.614;13.500;2022-07-03T00:32:52;4.17;;;2.93;;
13834;SDS011;6988;52.614;13.500;2022-07-03T00:37:46;3.77;;;3.00;;
13834;SDS011;6988;52.614;13.500;2022-07-03T00:42:38;3.83;;;3.43;;
13834;SDS011;6988;52.614;13.500;2022-07-03T00:47:30;6.07;;;3.30;;
13834;SDS011;6988;52.614;13.500;2022-07-03T00:52:26;4.17;;;3.23;;
13834;SDS011;6988;52.614;13.500;2022-07-03T00:57:24;4.70;;;3.57;;
13834;SDS011;6988;52.614;13.500;2022-07-03T01:02:22;3.90;;;3.07;;
13834;SDS011;6988;52.614;13.500;2022-07-03T01:07:28;5.87;;;3.90;;
13834;SDS011;6988;52.614;13.500;2022-07-03T01:12:33;4.47;;;3.80;;
13834;SDS011;6988;52.614;13.500;2022-07-03T01:17:42;4.40;;;3.80;;
13834;SDS011;6988;52.614;13.500;2022-07-03T01:22:53;3.83;;;3.53;;
13834;SDS011;6988;52.614;13.500;2022-07-03T01:27:59;6.53;;;3.87;;
13834;SDS011;6988;52.614;13.500;2022-07-03T01:33:02;5.80;;;3.97;;
13834;SDS011;6988;52.614;13.500;2022-07-03T01:37:57;5.53;;;3.90;;
13834;SDS011;6988;52.614;13.500;2022-07-03T01:42:55;4.73;;;3.50;;
13834;SDS011;6988;52.614;13.500;2022-07-03T01:47:52;4.63;;;3.30;;
13834;SDS011;6988;52.614;13.500;2022-07-03T01:52:47;5.33;;;3.70;;
13834;SDS011;6988;52.614;13.500;2022-07-03T01:57:42;4.73;;;3.63;;
13834;SDS011;6988;52.614;13.500;2022-07-03T02:02:40;4.70;;;3.60;;
13834;SDS011;6988;52.614;13.500;2022-07-03T02:07:40;5.40;;;3.70;;
13834;SDS011;6988;52.614;13.500;2022-07-03T02:12:48;4.47;;;4.00;;
13834;SDS011;6988;52.614;13.500;2022-07-03T02:17:47;4.67;;;3.93;;
13834;SDS011;6988;52.614;13.500;2022-07-03T02:22:43;4.63;;;4.13;;
13834;SDS011;6988;52.614;13.500;2022-07-03T02:27:43;5.20;;;4.10;;
13834;SDS011;6988;52.614;13.500;2022-07-03T02:32:43;4.50;;;4.07;;
13834;SDS011;6988;52.614;13.500;2022-07-03T02:37:43;7.53;;;4.03;;
13834;SDS011;6988;52.614;13.500;2022-07-03T02:42:42;4.40;;;4.00;;
13834;SDS011;6988;52.614;13.500;2022-07-03T02:47:47;5.87;;;4.27;;
13834;SDS011;6988;52.614;13.500;2022-07-03T02:52:55;4.80;;;3.73;;
13834;SDS011;6988;52.614;13.500;2022-07-03T02:57:55;4.90;;;4.40;;
13834;SDS011;6988;52.614;13.500;2022-07-03T03:03:05;5.00;;;4.30;;
13834;SDS011;6988;52.614;13.500;2022-07-03T03:08:02;5.40;;;4.30;;
13834;SDS011;6988;52.614;13.500;2022-07-03T03:13:04;5.63;;;4.23;;
13834;SDS011;6988;52.614;13.500;2022-07-03T03:18:00;6.07;;;4.27;;
13834;SDS011;6988;52.614;13.500;2022-07-03T03:23:03;5.20;;;4.10;;
13834;SDS011;6988;52.614;13.500;2022-07-03T03:28:03;7.83;;;4.30;;
13834;SDS011;6988;52.614;13.500;2022-07-03T03:32:55;5.60;;;4.10;;
13834;SDS011;6988;52.614;13.500;2022-07-03T03:37:47;5.37;;;4.40;;
13834;SDS011;6988;52.614;13.500;2022-07-03T03:42:40;4.93;;;4.43;;
13834;SDS011;6988;52.614;13.500;2022-07-03T03:47:33;5.17;;;4.43;;
13834;SDS011;6988;52.614;13.500;2022-07-03T03:52:25;5.13;;;4.63;;
13834;SDS011;6988;52.614;13.500;2022-07-03T03:57:18;5.47;;;4.90;;
13834;SDS011;6988;52.614;13.500;2022-07-03T04:02:12;5.30;;;4.80;;
13834;SDS011;6988;52.614;13.500;2022-07-03T04:07:05;6.77;;;5.30;;
13834;SDS011;6988;52.614;13.500;2022-07-03T04:11:57;6.73;;;5.00;;
13834;SDS011;6988;52.614;13.500;2022-07-03T04:16:48;5.53;;;5.00;;
13834;SDS011;6988;52.614;13.500;2022-07-03T04:21:41;7.07;;;5.03;;
13834;SDS011;6988;52.614;13.500;2022-07-03T04:26:33;6.53;;;4.77;;
13834;SDS011;6988;52.614;13.500;2022-07-03T04:31:25;5.83;;;4.47;;
13834;SDS011;6988;52.614;13.500;2022-07-03T04:36:17;7.00;;;4.87;;
13834;SDS011;6988;52.614;13.500;2022-07-03T04:41:10;4.70;;;4.27;;
13834;SDS011;6988;52.614;13.500;2022-07-03T04:46:02;6.70;;;4.50;;
13834;SDS011;6988;52.614;13.500;2022-07-03T04:50:54;4.37;;;3.97;;
13834;SDS011;6988;52.614;13.500;2022-07-03T04:55:45;5.00;;;4.50;;
13834;SDS011;6988;52.614;13.500;2022-07-03T05:00:38;4.53;;;4.07;;
13834;SDS011;6988;52.614;13.500;2022-07-03T05:05:30;6.03;;;4.37;;
13834;SDS011;6988;52.614;13.500;2022-07-03T05:10:22;4.63;;;4.13;;
13834;SDS011;6988;52.614;13.500;2022-07-03T05:15:14;6.10;;;4.23;;
13834;SDS011;6988;52.614;13.500;2022-07-03T05:20:08;4.17;;;3.77;;
13834;SDS011;6988;52.614;13.500;2022-07-03T05:25:18;5.27;;;3.90;;
13834;SDS011;6988;52.614;13.500;2022-07-03T05:30:12;4.30;;;3.73;;
13834;SDS011;6988;52.614;13.500;2022-07-03T05:35:04;3.90;;;3.60;;
13834;SDS011;6988;52.614;13.500;2022-07-03T05:39:59;4.43;;;4.00;;
13834;SDS011;6988;52.614;13.500;2022-07-03T05:44:51;4.80;;;3.50;;
13834;SDS011;6988;52.614;13.500;2022-07-03T05:49:42;5.53;;;3.67;;
13834;SDS011;6988;52.614;13.500;2022-07-03T05:54:35;4.70;;;3.30;;
13834;SDS011;6988;52.614;13.500;2022-07-03T05:59:27;3.80;;;3.13;;
13834;SDS011;6988;52.614;13.500;2022-07-03T06:04:19;4.63;;;3.23;;
13834;SDS011;6988;52.614;13.500;2022-07-03T06:09:10;3.80;;;2.93;;
13834;SDS011;6988;52.614;13.500;2022-07-03T06:14:03;4.20;;;3.37;;
13834;SDS011;6988;52.614;13.500;2022-07-03T06:18:55;3.57;;;3.10;;
13834;SDS011;6988;52.614;13.500;2022-07-03T06:23:47;4.63;;;3.13;;
13834;SDS011;6988;52.614;13.500;2022-07-03T06:28:38;3.80;;;2.87;;
13834;SDS011;6988;52.614;13.500;2022-07-03T06:33:32;3.10;;;2.80;;
13834;SDS011;6988;52.614;13.500;2022-07-03T06:38:23;3.47;;;3.10;;
13834;SDS011;6988;52.614;13.500;2022-07-03T06:43:15;4.13;;;2.80;;
13834;SDS011;6988;52.614;13.500;2022-07-03T06:48:07;3.90;;;2.60;;
13834;SDS011;6988;52.614;13.500;2022-07-03T06:53:00;6.10;;;2.53;;
13834;SDS011;6988;52.614;13.500;2022-07-03T06:57:51;4.20;;;2.70;;
13834;SDS011;6988;52.614;13.500;2022-07-03T07:02:43;2.60;;;2.40;;
13834;SDS011;6988;52.614;13.500;2022-07-03T07:07:35;2.60;;;2.40;;
13834;SDS011;6988;52.614;13.500;2022-07-03T07:12:28;3.90;;;2.30;;
13834;SDS011;6988;52.614;13.500;2022-07-03T07:17:20;2.83;;;2.53;;
13834;SDS011;6988;52.614;13.500;2022-07-03T07:22:12;3.55;;;2.60;;
13834;SDS011;6988;52.614;13.500;2022-07-03T07:27:03;2.58;;;2.10;;
13834;SDS011;6988;52.614;13.500;2022-07-03T07:31:57;2.33;;;2.13;;
13834;SDS011;6988;52.614;13.500;2022-07-03T07:36:49;3.95;;;2.20;;
13834;SDS011;6988;52.614;13.500;2022-07-03T07:41:40;2.15;;;1.88;;
13834;SDS011;6988;52.614;13.500;2022-07-03T07:46:32;2.25;;;2.05;;
13834;SDS011;6988;52.614;13.500;2022-07-03T07:51:25;5.30;;;2.33;;
13834;SDS011;6988;52.614;13.500;2022-07-03T07:56:17;2.88;;;2.05;;
13834;SDS011;6988;52.614;13.500;2022-07-03T08:01:08;2.08;;;1.90;;
13834;SDS011;6988;52.614;13.500;2022-07-03T08:06:18;2.58;;;1.90;;
13834;SDS011;6988;52.614;13.500;2022-07-03T08:11:11;3.13;;;2.28;;
13834;SDS011;6988;52.614;13.500;2022-07-03T08:16:03;2.25;;;2.05;;
13834;SDS011;6988;52.614;13.500;2022-07-03T08:20:55;2.20;;;2.00;;
13834;SDS011;6988;52.614;13.500;2022-07-03T08:25:47;2.13;;;1.90;;
13834;SDS011;6988;52.614;13.500;2022-07-03T08:30:40;2.88;;;1.92;;
13834;SDS011;6988;52.614;13.500;2022-07-03T08:35:31;3.03;;;2.05;;
13834;SDS011;6988;52.614;13.500;2022-07-03T08:40:23;3.95;;;2.00;;
13834;SDS011;6988;52.614;13.500;2022-07-03T08:45:16;2.50;;;1.85;;
13834;SDS011;6988;52.614;13.500;2022-07-03T08:50:11;3.35;;;2.17;;
13834;SDS011;6988;52.614;13.500;2022-07-03T08:55:05;4.00;;;2.25;;
13834;SDS011;6988;52.614;13.500;2022-07-03T08:59:58;2.42;;;2.15;;
13834;SDS011;6988;52.614;13.500;2022-07-03T09:04:54;2.65;;;2.10;;
13834;SDS011;6988;52.614;13.500;2022-07-03T09:09:48;3.45;;;2.00;;
13834;SDS011;6988;52.614;13.500;2022-07-03T09:14:42;2.30;;;2.10;;
13834;SDS011;6988;52.614;13.500;2022-07-03T09:19:40;3.38;;;2.33;;
13834;SDS011;6988;52.614;13.500;2022-07-03T09:24:34;3.30;;;2.15;;
13834;SDS011;6988;52.614;13.500;2022-07-03T09:29:27;3.30;;;2.13;;
13834;SDS011;6988;52.614;13.500;2022-07-03T09:34:18;4.70;;;1.90;;
13834;SDS011;6988;52.614;13.500;2022-07-03T09:39:17;5.78;;;2.35;;
13834;SDS011;6988;52.614;13.500;2022-07-03T09:44:12;1.67;;;1.58;;
13834;SDS011;6988;52.614;13.500;2022-07-03T09:49:21;2.30;;;2.10;;
13834;SDS011;6988;52.614;13.500;2022-07-03T09:54:13;2.10;;;1.90;;
13834;SDS011;6988;52.614;13.500;2022-07-03T09:59:09;2.13;;;1.92;;
13834;SDS011;6988;52.614;13.500;2022-07-03T10:04:17;2.08;;;1.90;;
13834;SDS011;6988;52.614;13.500;2022-07-03T10:09:11;2.72;;;2.22;;
13834;SDS011;6988;52.614;13.500;2022-07-03T10:14:05;3.67;;;2.25;;
13834;SDS011;6988;52.614;13.500;2022-07-03T10:18:58;2.00;;;1.90;;
13834;SDS011;6988;52.614;13.500;2022-07-03T10:23:54;2.65;;;1.83;;
13834;SDS011;6988;52.614;13.500;2022-07-03T10:28:46;2.92;;;1.92;;
13834;SDS011;6988;52.614;13.500;2022-07-03T10:33:39;4.10;;;2.00;;
13834;SDS011;6988;52.614;13.500;2022-07-03T10:38:35;2.17;;;1.98;;
13834;SDS011;6988;52.614;13.500;2022-07-03T10:43:33;2.47;;;2.28;;
13834;SDS011;6988;52.614;13.500;2022-07-03T10:49:00;2.05;;;1.95;;
13834;SDS011;6988;52.614;13.500;2022-07-03T10:54:11;3.65;;;2.30;;
13834;SDS011;6988;52.614;13.500;2022-07-03T10:59:07;3.63;;;2.42;;
13834;SDS011;6988;52.614;13.500;2022-07-03T11:03:59;2.95;;;2.28;;
13834;SDS011;6988;52.614;13.500;2022-07-03T11:09:01;3.05;;;1.90;;
13834;SDS011;6988;52.614;13.500;2022-07-03T11:19:15;2.15;;;1.98;;
13834;SDS011;6988;52.614;13.500;2022-07-03T11:24:24;3.10;;;1.92;;
13834;SDS011;6988;52.614;13.500;2022-07-03T11:29:29;3.13;;;1.95;;
13834;SDS011;6988;52.614;13.500;2022-07-03T11:34:21;2.67;;;1.90;;
13834;SDS011;6988;52.614;13.500;2022-07-03T11:39:13;2.20;;;2.00;;
13834;SDS011;6988;52.614;13.500;2022-07-03T11:44:13;2.30;;;2.10;;
13834;SDS011;6988;52.614;13.500;2022-07-03T11:49:10;3.17;;;1.98;;
13834;SDS011;6988;52.614;13.500;2022-07-03T11:54:05;3.70;;;2.10;;
13834;SDS011;6988;52.614;13.500;2022-07-03T11:58:58;2.42;;;2.20;;
13834;SDS011;6988;52.614;13.500;2022-07-03T12:03:52;2.10;;;1.83;;
13834;SDS011;6988;52.614;13.500;2022-07-03T12:08:54;2.50;;;2.30;;
13834;SDS011;6988;52.614;13.500;2022-07-03T12:13:46;2.40;;;2.13;;
13834;SDS011;6988;52.614;13.500;2022-07-03T12:18:41;2.40;;;2.20;;
13834;SDS011;6988;52.614;13.500;2022-07-03T12:23:42;2.33;;;2.13;;
13834;SDS011;6988;52.614;13.500;2022-07-03T12:28:37;2.90;;;2.20;;
13834;SDS011;6988;52.614;13.500;2022-07-03T12:33:29;2.22;;;2.03;;
13834;SDS011;6988;52.614;13.500;2022-07-03T12:38:28;2.53;;;2.10;;
13834;SDS011;6988;52.614;13.500;2022-07-03T12:43:20;2.95;;;1.80;;
13834;SDS011;6988;52.614;13.500;2022-07-03T12:48:13;2.10;;;1.90;;
13834;SDS011;6988;52.614;13.500;2022-07-03T12:53:05;2.10;;;1.90;;
13834;SDS011;6988;52.614;13.500;2022-07-03T12:58:09;2.85;;;1.92;;
13834;SDS011;6988;52.614;13.500;2022-07-03T13:03:27;3.00;;;1.90;;
13834;SDS011;6988;52.614;13.500;2022-07-03T13:08:20;2.25;;;1.85;;
13834;SDS011;6988;52.614;13.500;2022-07-03T13:13:12;2.30;;;1.92;;
13834;SDS011;6988;52.614;13.500;2022-07-03T13:18:04;2.97;;;2.15;;
13834;SDS011;6988;52.614;13.500;2022-07-03T13:22:57;2.63;;;2.35;;
13834;SDS011;6988;52.614;13.500;2022-07-03T13:27:51;2.25;;;2.08;;
13834;SDS011;6988;52.614;13.500;2022-07-03T13:32:43;2.20;;;2.00;;
13834;SDS011;6988;52.614;13.500;2022-07-03T13:37:35;2.40;;;2.20;;
13834;SDS011;6988;52.614;13.500;2022-07-03T13:42:29;2.90;;;2.30;;
13834;SDS011;6988;52.614;13.500;2022-07-03T13:47:21;2.22;;;2.03;;
13834;SDS011;6988;52.614;13.500;2022-07-03T13:52:13;2.33;;;2.13;;
13834;SDS011;6988;52.614;13.500;2022-07-03T13:57:05;2.35;;;2.10;;
13834;SDS011;6988;52.614;13.500;2022-07-03T14:01:58;2.50;;;2.30;;
13834;SDS011;6988;52.614;13.500;2022-07-03T14:06:50;5.05;;;2.17;;
13834;SDS011;6988;52.614;13.500;2022-07-03T14:11:42;2.95;;;2.10;;
13834;SDS011;6988;52.614;13.500;2022-07-03T14:16:34;3.00;;;2.30;;
13834;SDS011;6988;52.614;13.500;2022-07-03T14:21:29;2.20;;;2.00;;
13834;SDS011;6988;52.614;13.500;2022-07-03T14:26:20;2.53;;;2.25;;
13834;SDS011;6988;52.614;13.500;2022-07-03T14:31:26;2.40;;;2.30;;
13834;SDS011;6988;52.614;13.500;2022-07-03T14:36:36;2.20;;;2.00;;
13834;SDS011;6988;52.614;13.500;2022-07-03T14:41:28;2.50;;;1.92;;
13834;SDS011;6988;52.614;13.500;2022-07-03T14:46:20;3.17;;;2.30;;
13834;SDS011;6988;52.614;13.500;2022-07-03T14:51:12;2.28;;;2.08;;
13834;SDS011;6988;52.614;13.500;2022-07-03T14:56:05;1.77;;;1.67;;
13834;SDS011;6988;52.614;13.500;2022-07-03T15:01:01;2.53;;;1.90;;
13834;SDS011;6988;52.614;13.500;2022-07-03T15:05:59;2.13;;;1.92;;
13834;SDS011;6988;52.614;13.500;2022-07-03T15:10:53;1.77;;;1.67;;
13834;SDS011;6988;52.614;13.500;2022-07-03T15:15:57;3.45;;;2.00;;
13834;SDS011;6988;52.614;13.500;2022-07-03T15:20:49;2.08;;;1.83;;
13834;SDS011;6988;52.614;13.500;2022-07-03T15:25:42;3.13;;;1.73;;
13834;SDS011;6988;52.614;13.500;2022-07-03T15:30:37;2.63;;;1.90;;
13834;SDS011;6988;52.614;13.500;2022-07-03T15:35:38;2.58;;;1.98;;
13834;SDS011;6988;52.614;13.500;2022-07-03T15:40:45;2.20;;;2.00;;
13834;SDS011;6988;52.614;13.500;2022-07-03T15:45:44;1.85;;;1.75;;
13834;SDS011;6988;52.614;13.500;2022-07-03T15:50:48;2.10;;;1.85;;
13834;SDS011;6988;52.614;13.500;2022-07-03T15:55:48;1.80;;;1.70;;
13834;SDS011;6988;52.614;13.500;2022-07-03T16:00:49;3.60;;;1.90;;
13834;SDS011;6988;52.614;13.500;2022-07-03T16:05:57;2.45;;;1.95;;
13834;SDS011;6988;52.614;13.500;2022-07-03T16:10:54;2.05;;;1.63;;
13834;SDS011;6988;52.614;13.500;2022-07-03T16:15:46;2.10;;;1.65;;
13834;SDS011;6988;52.614;13.500;2022-07-03T16:20:40;2.88;;;2.08;;
13834;SDS011;6988;52.614;13.500;2022-07-03T16:25:34;2.85;;;1.88;;
13834;SDS011;6988;52.614;13.500;2022-07-03T16:30:29;1.67;;;1.58;;
13834;SDS011;6988;52.614;13.500;2022-07-03T16:35:25;1.88;;;1.77;;
13834;SDS011;6988;52.614;13.500;2022-07-03T16:40:25;1.85;;;1.75;;
13834;SDS011;6988;52.614;13.500;2022-07-03T16:45:20;5.25;;;1.63;;
13834;SDS011;6988;52.614;13.500;2022-07-03T16:50:13;2.90;;;1.88;;
13834;SDS011;6988;52.614;13.500;2022-07-03T16:55:06;2.10;;;1.60;;
13834;SDS011;6988;52.614;13.500;2022-07-03T16:59:59;2.38;;;1.65;;
13834;SDS011;6988;52.614;13.500;2022-07-03T17:04:54;2.35;;;1.90;;
13834;SDS011;6988;52.614;13.500;2022-07-03T17:09:48;4.70;;;3.22;;
13834;SDS011;6988;52.614;13.500;2022-07-03T17:14:41;2.22;;;1.63;;
13834;SDS011;6988;52.614;13.500;2022-07-03T17:19:34;2.22;;;2.03;;
13834;SDS011;6988;52.614;13.500;2022-07-03T17:24:38;1.83;;;1.73;;
13834;SDS011;6988;52.614;13.500;2022-07-03T17:29:39;1.80;;;1.70;;
13834;SDS011;6988;52.614;13.500;2022-07-03T17:34:38;1.73;;;1.60;;
13834;SDS011;6988;52.614;13.500;2022-07-03T17:39:33;1.98;;;1.75;;
13834;SDS011;6988;52.614;13.500;2022-07-03T17:44:28;3.38;;;1.60;;
13834;SDS011;6988;52.614;13.500;2022-07-03T17:49:25;1.83;;;1.67;;
13834;SDS011;6988;52.614;13.500;2022-07-03T17:54:21;2.50;;;1.60;;
13834;SDS011;6988;52.614;13.500;2022-07-03T17:59:14;3.33;;;1.88;;
13834;SDS011;6988;52.614;13.500;2022-07-03T18:04:08;3.15;;;1.70;;
13834;SDS011;6988;52.614;13.500;2022-07-03T18:09:01;3.40;;;1.60;;
13834;SDS011;6988;52.614;13.500;2022-07-03T18:14:00;1.63;;;1.50;;
13834;SDS011;6988;52.614;13.500;2022-07-03T18:18:56;1.70;;;1.40;;
13834;SDS011;6988;52.614;13.500;2022-07-03T18:23:51;2.63;;;1.50;;
13834;SDS011;6988;52.614;13.500;2022-07-03T18:28:46;2.80;;;1.70;;
13834;SDS011;6988;52.614;13.500;2022-07-03T18:33:39;2.90;;;1.73;;
13834;SDS011;6988;52.614;13.500;2022-07-03T18:38:30;3.15;;;1.90;;
13834;SDS011;6988;52.614;13.500;2022-07-03T18:43:27;2.85;;;1.70;;
13834;SDS011;6988;52.614;13.500;2022-07-03T18:48:22;1.70;;;1.60;;
13834;SDS011;6988;52.614;13.500;2022-07-03T18:53:14;1.80;;;1.70;;
13834;SDS011;6988;52.614;13.500;2022-07-03T18:58:15;2.17;;;1.90;;
13834;SDS011;6988;52.614;13.500;2022-07-03T19:03:28;2.05;;;1.85;;
13834;SDS011;6988;52.614;13.500;2022-07-03T19:08:38;4.78;;;2.00;;
13834;SDS011;6988;52.614;13.500;2022-07-03T19:13:44;2.90;;;1.83;;
13834;SDS011;6988;52.614;13.500;2022-07-03T19:18:43;4.32;;;1.85;;
13834;SDS011;6988;52.614;13.500;2022-07-03T19:23:35;2.10;;;1.90;;
13834;SDS011;6988;52.614;13.500;2022-07-03T19:28:27;2.78;;;2.00;;
13834;SDS011;6988;52.614;13.500;2022-07-03T19:33:20;2.30;;;2.10;;
13834;SDS011;6988;52.614;13.500;2022-07-03T19:38:13;2.58;;;2.17;;
13834;SDS011;6988;52.614;13.500;2022-07-03T19:43:05;3.28;;;2.03;;
13834;SDS011;6988;52.614;13.500;2022-07-03T19:47:58;2.90;;;2.10;;
13834;SDS011;6988;52.614;13.500;2022-07-03T19:52:51;2.75;;;2.20;;
13834;SDS011;6988;52.614;13.500;2022-07-03T19:57:43;4.32;;;2.20;;
13834;SDS011;6988;52.614;13.500;2022-07-03T20:02:34;2.28;;;2.00;;
13834;SDS011;6988;52.614;13.500;2022-07-03T20:07:26;3.00;;;2.23;;
13834;SDS011;6988;52.614;13.500;2022-07-03T20:12:19;3.50;;;2.07;;
13834;SDS011;6988;52.614;13.500;2022-07-03T20:17:12;3.10;;;2.40;;
13834;SDS011;6988;52.614;13.500;2022-07-03T20:22:04;3.63;;;2.23;;
13834;SDS011;6988;52.614;13.500;2022-07-03T20:26:56;2.33;;;2.10;;
13834;SDS011;6988;52.614;13.500;2022-07-03T20:31:50;3.13;;;2.47;;
13834;SDS011;6988;52.614;13.500;2022-07-03T20:36:42;2.70;;;2.00;;
13834;SDS011;6988;52.614;13.500;2022-07-03T20:41:34;2.50;;;2.30;;
13834;SDS011;6988;52.614;13.500;2022-07-03T20:46:26;3.63;;;2.20;;
13834;SDS011;6988;52.614;13.500;2022-07-03T20:51:20;4.97;;;2.57;;
13834;SDS011;6988;52.614;13.500;2022-07-03T20:56:11;3.17;;;2.70;;
13834;SDS011;6988;52.614;13.500;2022-07-03T21:01:03;3.10;;;2.57;;
13834;SDS011;6988;52.614;13.500;2022-07-03T21:05:55;2.70;;;2.50;;
13834;SDS011;6988;52.614;13.500;2022-07-03T21:11:08;3.63;;;2.63;;
13834;SDS011;6988;52.614;13.500;2022-07-03T21:16:18;5.20;;;2.60;;
13834;SDS011;6988;52.614;13.500;2022-07-03T21:21:10;4.07;;;2.60;;
13834;SDS011;6988;52.614;13.500;2022-07-03T21:26:02;4.13;;;2.40;;
13834;SDS011;6988;52.614;13.500;2022-07-03T21:30:56;2.60;;;2.40;;
13834;SDS011;6988;52.614;13.500;2022-07-03T21:35:47;2.57;;;2.37;;
13834;SDS011;6988;52.614;13.500;2022-07-03T21:40:39;3.63;;;2.73;;
13834;SDS011;6988;52.614;13.500;2022-07-03T21:45:31;3.60;;;2.80;;
13834;SDS011;6988;52.614;13.500;2022-07-03T21:50:24;2.87;;;2.50;;
13834;SDS011;6988;52.614;13.500;2022-07-03T21:55:17;3.00;;;2.70;;
13834;SDS011;6988;52.614;13.500;2022-07-03T22:00:09;3.30;;;3.00;;
13834;SDS011;6988;52.614;13.500;2022-07-03T22:05:05;3.47;;;2.90;;
13834;SDS011;6988;52.614;13.500;2022-07-03T22:09:59;8.07;;;2.50;;
13834;SDS011;6988;52.614;13.500;2022-07-03T22:14:51;3.90;;;3.20;;
13834;SDS011;6988;52.614;13.500;2022-07-03T22:19:43;3.17;;;2.67;;
13834;SDS011;6988;52.614;13.500;2022-07-03T22:24:34;3.10;;;2.80;;
13834;SDS011;6988;52.614;13.500;2022-07-03T22:29:29;4.87;;;2.70;;
13834;SDS011;6988;52.614;13.500;2022-07-03T22:34:20;3.87;;;3.20;;
13834;SDS011;6988;52.614;13.500;2022-07-03T22:39:13;4.47;;;2.77;;
13834;SDS011;6988;52.614;13.500;2022-07-03T22:44:04;3.20;;;2.90;;
13834;SDS011;6988;52.614;13.500;2022-07-03T22:48:57;3.43;;;3.13;;
13834;SDS011;6988;52.614;13.500;2022-07-03T22:53:49;5.63;;;3.47;;
13834;SDS011;6988;52.614;13.500;2022-07-03T22:58:41;4.80;;;3.10;;
13834;SDS011;6988;52.614;13.500;2022-07-03T23:03:33;3.13;;;2.83;;
13834;SDS011;6988;52.614;13.500;2022-07-03T23:08:26;4.27;;;3.00;;
13834;SDS011;6988;52.614;13.500;2022-07-03T23:13:17;7.83;;;3.30;;
13834;SDS011;6988;52.614;13.500;2022-07-03T23:18:09;4.00;;;3.10;;
13834;SDS011;6988;52.614;13.500;2022-07-03T23:23:02;3.23;;;2.90;;
13834;SDS011;6988;52.614;13.500;2022-07-03T23:27:55;3.40;;;2.70;;
13834;SDS011;6988;52.614;13.500;2022-07-03T23:32:47;4.83;;;2.80;;
13834;SDS011;6988;52.614;13.500;2022-07-03T23:37:38;5.40;;;2.60;;
13834;SDS011;6988;52.614;13.500;2022-07-03T23:42:30;3.73;;;2.33;;
13834;SDS011;6988;52.614;13.500;2022-07-03T23:47:23;3.50;;;2.33;;
13834;SDS011;6988;52.614;13.500;2022-07-03T23:52:15;2.27;;;2.03;;
13834;SDS011;6988;52.614;13.500;2022-07-03T23:57:08;2.40;;;2.20;;
